Startpagina
METAR-TAF:

METAR-TAF

Vliegvelden :

Vliegbasis Deelen

Arnhem, Nederland

breedte: 52-04N, lengte: 005-53E, hoogte: 48 m

Actueel weer

Dit bericht is 19 minuten geleden gemaakt, om 05:55 UTC
Weinig wind
Temperatuur -5°C
Vochtigheid 93%
Druk 1027 hPa
Zicht 10 km of meer
Weinig wolken lager dan 100 ft
Geheel bewolkt op 3500 ft

METAR: EHDL 070555Z AUTO 00000KT 9999 FEW000 OVC035 M05/M06 Q1027 BLU

Tijdstip: 07:14 (06:14 UTC)


TAF: ontbreekt

Waarnemingen en weersverwachtingen van meer dan 4000 vliegvelden (METAR en TAF).

De beschikbare stations zijn de gele en rode punten op de kaart.

Ga met uw muis naar het station om de naam te zien.

Klik dan om waarnemingen en weersverwachtingen te zien.

kaart wijzigen: klik op de groene knoppen met een zwart kruis om in te zoomen, op de groene knop met een streepje om uit te zoomen of op de groene pijlen voor aangrenzende kaarten.


METAR-TAF: